Time;durP1;ratioP1;P1;durP2;ratioP2;P2;SDS_P1;SDS_P2;PMS_P1;PMS_P2;Temp;Humidity;BMP_temperature;BMP_pressure;BME280_temperature;BME280_humidity;BME280_pressure;Samples;Min_cycle;Max_cycle;Signal;HPM_P1;HPM_P2
2021/09/10 00:00:49;;;;;;;;;;;;;;;18.52;82.93;100964.13;2091065;28;19908;-63
2021/09/10 00:01:49;;;;;;;;;;;;;;;18.50;82.24;100958.16;2091024;28;19932;-63
2021/09/10 00:02:49;;;;;;;;;;;;;;;18.51;81.95;100956.34;2091039;28;19909;-63
2021/09/10 00:03:49;;;;;;;;;;;;;;;18.53;81.92;100955.28;2090995;28;20424;-62
2021/09/10 00:04:49;;;;;;;;;;;;;;;18.54;81.93;100961.38;2091085;28;19955;-62
2021/09/10 00:05:49;;;;;;;;;;;;;;;18.53;81.82;100954.41;2082103;28;19944;-63
2021/09/10 00:06:50;;;;;;;;;;;;;;;18.53;81.79;100954.41;2082147;28;19913;-63
2021/09/10 00:07:50;;;;;;;;;;;;;;;18.51;82.65;100961.63;2090942;28;19909;-62
2021/09/10 00:08:50;;;;;;;;;;;;;;;18.50;82.05;100950.22;2082073;28;19909;-63
2021/09/10 00:09:50;;;;;;;;;;;;;;;18.52;81.86;100960.69;2082109;28;19916;-62
2021/09/10 00:10:50;;;;;;;;;;;;;;;18.52;81.96;100952.75;2090794;28;19909;-63
2021/09/10 00:11:51;;;;;;;;;;;;;;;18.51;82.25;100957.19;2090979;28;19909;-62
2021/09/10 00:12:51;;;;;;;;;;;;;;;18.50;81.60;100950.22;2090951;28;19909;-64
2021/09/10 00:13:51;;;;;;;;;;;;;;;18.51;81.63;100951.06;2090969;28;19916;-64
2021/09/10 00:14:51;;;;;;;;;;;;;;;18.53;82.17;100957.06;2090956;28;20280;-63
2021/09/10 00:15:51;;;;;;;;;;;;;;;18.51;82.58;100957.19;2090927;28;19913;-63
2021/09/10 00:16:51;;;;;;;;;;;;;;;18.50;82.59;100955.50;2090911;28;20396;-63
2021/09/10 00:17:52;;;;;;;;;;;;;;;18.49;82.42;100952.97;2090778;28;19924;-63
2021/09/10 00:18:52;;;;;;;;;;;;;;;18.48;82.90;100949.47;2090824;28;20258;-63
2021/09/10 00:19:52;;;;;;;;;;;;;;;18.49;82.97;100960.91;2090825;28;19916;-62
2021/09/10 00:20:52;;;;;;;;;;;;;;;18.49;82.27;100960.91;2090924;28;20380;-62
2021/09/10 00:21:52;;;;;;;;;;;;;;;18.47;81.92;100945.16;2090843;28;20373;-64
2021/09/10 00:22:53;;;;;;;;;;;;;;;18.47;81.65;100950.44;2090855;28;19958;-63
2021/09/10 00:23:53;;;;;;;;;;;;;;;18.45;81.57;100955.00;2090865;28;20362;-64
2021/09/10 00:24:53;;;;;;;;;;;;;;;18.45;81.71;100957.66;2090852;28;19916;-63
2021/09/10 00:25:53;;;;;;;;;;;;;;;18.44;81.96;100953.31;2090816;28;20380;-62
2021/09/10 00:26:53;;;;;;;;;;;;;;;18.44;81.62;100942.72;2090806;28;19915;-63
2021/09/10 00:27:54;;;;;;;;;;;;;;;18.43;81.87;100953.41;2090851;28;19909;-63
2021/09/10 00:28:54;;;;;;;;;;;;;;;18.41;82.19;100950.91;2090853;28;19944;-63
2021/09/10 00:29:54;;;;;;;;;;;;;;;18.40;82.10;100951.84;2090768;28;20432;-63
2021/09/10 00:30:55;;;;;;;;;;;;;;;18.38;82.30;100951.13;2090622;28;19917;-63
2021/09/10 00:31:55;;;;;;;;;;;;;;;18.38;82.16;100945.84;2090806;28;19916;-63
2021/09/10 00:32:55;;;;;;;;;;;;;;;18.38;82.89;100951.13;2090178;28;19987;-64
2021/09/10 00:33:55;;;;;;;;;;;;;;;18.38;83.30;100953.78;2090190;28;19913;-64
2021/09/10 00:34:55;;;;;;;;;;;;;;;18.38;85.28;100946.66;2090900;28;19913;-63
2021/09/10 00:35:56;;;;;;;;;;;;;;;18.36;85.09;100950.38;2090776;28;19913;-63
2021/09/10 00:36:56;;;;;;;;;;;;;;;18.35;85.38;100951.34;2090781;28;19915;-64
2021/09/10 00:37:56;;;;;;;;;;;;;;;18.35;85.20;100949.56;2090026;28;20325;-63
2021/09/10 00:38:56;;;;;;;;;;;;;;;18.34;83.58;100960.25;2090171;28;19959;-63
2021/09/10 00:39:57;;;;;;;;;;;;;;;18.32;83.25;100946.28;2090670;28;19991;-63
2021/09/10 00:40:58;;;;;;;;;;;;;;;18.32;82.79;100957.72;2090698;28;20385;-63
2021/09/10 00:41:58;;;;;;;;;;;;;;;18.34;83.63;100950.50;2090706;28;20366;-63
2021/09/10 00:42:58;;;;;;;;;;;;;;;18.33;85.05;100947.97;2090666;28;19998;-62
2021/09/10 00:43:58;;;;;;;;;;;;;;;18.32;83.97;100948.94;2081748;28;19972;-62
2021/09/10 00:44:59;;;;;;;;;;;;;;;18.33;83.96;100958.53;2081894;28;20279;-63
2021/09/10 00:45:59;;;;;;;;;;;;;;;18.31;84.12;100950.75;2090646;28;19915;-63
2021/09/10 00:46:59;;;;;;;;;;;;;;;18.31;83.15;100952.53;2090682;28;19909;-62
2021/09/10 00:47:59;;;;;;;;;;;;;;;18.32;83.35;100951.56;2090726;28;19909;-62
2021/09/10 00:49:00;;;;;;;;;;;;;;;18.31;83.26;100953.41;2089957;28;19916;-63
2021/09/10 00:50:01;;;;;;;;;;;;;;;18.28;83.13;100946.50;2090157;28;19917;-63
2021/09/10 00:51:01;;;;;;;;;;;;;;;18.29;83.46;100947.38;2090531;28;19912;-63
2021/09/10 00:52:01;;;;;;;;;;;;;;;18.26;83.46;100943.16;2089975;28;19909;-62
2021/09/10 00:53:01;;;;;;;;;;;;;;;18.25;83.44;100957.31;2090047;28;19909;-62
2021/09/10 00:54:02;;;;;;;;;;;;;;;18.26;84.56;100945.78;2090636;28;19960;-63
2021/09/10 00:55:02;;;;;;;;;;;;;;;18.26;83.50;100948.44;2090589;28;19916;-63
2021/09/10 00:56:02;;;;;;;;;;;;;;;18.27;83.29;100950.13;2090642;28;20061;-64
2021/09/10 00:57:03;;;;;;;;;;;;;;;18.26;83.51;100947.59;2090624;28;19909;-63
2021/09/10 00:58:03;;;;;;;;;;;;;;;18.25;83.35;100954.69;2090641;28;19920;-63
2021/09/10 00:59:05;;;;;;;;;;;;;;;18.26;83.41;100953.72;2090577;28;19909;-62
2021/09/10 01:00:05;;;;;;;;;;;;;;;18.27;83.63;100949.28;2090567;28;19915;-62
2021/09/10 01:01:06;;;;;;;;;;;;;;;18.25;84.07;100952.03;2090592;28;19912;-63
2021/09/10 01:02:06;;;;;;;;;;;;;;;18.25;83.43;100944.13;2090569;28;19943;-62
2021/09/10 01:03:07;;;;;;;;;;;;;;;18.27;85.03;100944.00;2090604;28;20007;-62
2021/09/10 01:04:08;;;;;;;;;;;;;;;18.26;83.66;100953.72;2093090;28;19955;-62
2021/09/10 01:05:08;;;;;;;;;;;;;;;18.27;83.31;100949.28;2090462;28;19919;-63
2021/09/10 01:06:09;;;;;;;;;;;;;;;18.27;83.35;100946.66;2090602;28;19913;-61
2021/09/10 01:07:10;;;;;;;;;;;;;;;18.26;83.13;100945.78;2090511;28;19958;-61
2021/09/10 01:08:11;;;;;;;;;;;;;;;18.25;83.38;100946.75;2089842;28;19962;-62
2021/09/10 01:09:12;;;;;;;;;;;;;;;18.23;84.06;100953.94;2090018;28;19912;-61
2021/09/10 01:10:12;;;;;;;;;;;;;;;18.21;83.77;100950.59;2090532;28;19915;-62
2021/09/10 01:11:14;;;;;;;;;;;;;;;18.20;84.40;100948.06;2081609;28;19913;-62
2021/09/10 01:12:14;;;;;;;;;;;;;;;18.19;84.20;100952.47;2081820;28;19957;-62
2021/09/10 01:13:15;;;;;;;;;;;;;;;18.19;83.51;100946.34;2089994;28;20393;-61
2021/09/10 01:14:15;;;;;;;;;;;;;;;18.20;83.56;100948.06;2090566;28;19912;-63
2021/09/10 01:15:16;;;;;;;;;;;;;;;18.18;83.38;100945.53;2090569;28;19913;-62
2021/09/10 01:16:16;;;;;;;;;;;;;;;18.19;84.20;100949.00;2081630;28;19916;-63
2021/09/10 01:17:17;;;;;;;;;;;;;;;18.18;84.93;100950.81;2083340;28;19917;-62
2021/09/10 01:18:17;;;;;;;;;;;;;;;18.17;85.50;100949.13;2090551;28;20369;-62
2021/09/10 01:19:24;;;;;;;;;;;;;;;18.16;84.74;100947.41;2090364;28;20427;-63
2021/09/10 01:20:24;;;;;;;;;;;;;;;18.14;84.38;100939.59;2093271;28;19916;-62
2021/09/10 01:21:25;;;;;;;;;;;;;;;18.14;84.25;100938.78;2090518;28;19913;-61
2021/09/10 01:22:25;;;;;;;;;;;;;;;18.14;84.96;100941.44;2090504;28;19919;-63
2021/09/10 01:23:25;;;;;;;;;;;;;;;18.11;85.45;100941.63;2081768;28;19913;-63
2021/09/10 01:24:26;;;;;;;;;;;;;;;18.09;84.64;100941.75;2081658;28;20317;-62
2021/09/10 01:25:27;;;;;;;;;;;;;;;18.08;84.84;100939.19;2090556;28;19912;-63
2021/09/10 01:26:27;;;;;;;;;;;;;;;18.07;84.88;100933.06;2090534;28;19909;-62
2021/09/10 01:27:27;;;;;;;;;;;;;;;18.07;85.93;100937.50;2090519;28;20282;-63
2021/09/10 01:28:28;;;;;;;;;;;;;;;18.06;86.10;100944.56;2090426;28;19920;-63
2021/09/10 01:29:31;;;;;;;;;;;;;;;18.03;84.78;100936.88;2090621;28;19909;-64
2021/09/10 01:30:32;;;;;;;;;;;;;;;18.05;85.25;100939.41;2090535;28;19913;-63
2021/09/10 01:31:32;;;;;;;;;;;;;;;18.04;85.12;100943.00;2090368;28;19913;-63
2021/09/10 01:32:32;;;;;;;;;;;;;;;18.02;84.50;100933.41;2090492;28;19908;-63
2021/09/10 01:33:33;;;;;;;;;;;;;;;18.05;84.77;100939.41;2090441;28;19944;-63
2021/09/10 01:34:33;;;;;;;;;;;;;;;18.05;84.48;100931.47;2090423;28;20011;-63
2021/09/10 01:35:33;;;;;;;;;;;;;;;18.04;84.56;100933.31;2081553;28;19909;-63
2021/09/10 01:36:33;;;;;;;;;;;;;;;18.04;84.16;100928.03;2081600;28;20386;-63
2021/09/10 01:37:34;;;;;;;;;;;;;;;18.04;84.20;100932.44;2089763;28;19908;-62
2021/09/10 01:38:34;;;;;;;;;;;;;;;18.03;84.12;100923.66;2089791;28;19909;-63
2021/09/10 01:39:34;;;;;;;;;;;;;;;18.01;84.10;100931.72;2090427;28;19958;-64
2021/09/10 01:40:35;;;;;;;;;;;;;;;18.01;85.19;100934.38;2090428;28;20023;-64
2021/09/10 01:41:35;;;;;;;;;;;;;;;17.99;84.74;100932.78;2089827;28;19920;-64
2021/09/10 01:42:36;;;;;;;;;;;;;;;17.98;85.38;100929.31;2089905;28;20392;-63
2021/09/10 01:43:36;;;;;;;;;;;;;;;17.96;85.19;100931.19;2090319;28;19983;-63
2021/09/10 01:44:36;;;;;;;;;;;;;;;17.97;85.47;100930.25;2090488;28;19926;-62
2021/09/10 01:45:36;;;;;;;;;;;;;;;17.96;85.50;100933.84;2090360;28;19909;-63
2021/09/10 01:46:37;;;;;;;;;;;;;;;17.93;84.57;100931.41;2081532;28;19909;-62
2021/09/10 01:47:37;;;;;;;;;;;;;;;17.94;84.95;100938.41;2081678;28;19909;-63
2021/09/10 01:48:37;;;;;;;;;;;;;;;17.93;85.47;100933.22;2090298;28;19916;-63
2021/09/10 01:49:38;;;;;;;;;;;;;;;17.92;85.86;100935.03;2090380;28;19920;-62
2021/09/10 01:50:38;;;;;;;;;;;;;;;17.90;86.34;100936.94;2090429;28;19923;-62
2021/09/10 01:51:38;;;;;;;;;;;;;;;17.89;84.97;100933.44;2090353;28;19920;-62
2021/09/10 01:52:38;;;;;;;;;;;;;;;17.90;84.69;100931.66;2090397;28;20328;-62
2021/09/10 01:53:38;;;;;;;;;;;;;;;17.89;84.63;100929.94;2081468;28;19913;-63
2021/09/10 01:54:38;;;;;;;;;;;;;;;17.87;84.78;100927.41;2081586;28;19916;-63
2021/09/10 01:55:39;;;;;;;;;;;;;;;17.86;84.57;100927.56;2090277;28;19908;-63
2021/09/10 01:56:39;;;;;;;;;;;;;;;17.85;85.65;100933.78;2090375;28;19947;-62
2021/09/10 01:57:40;;;;;;;;;;;;;;;17.84;86.31;100926.81;2090376;28;19909;-62
2021/09/10 01:58:40;;;;;;;;;;;;;;;17.84;86.81;100937.38;2090394;28;19999;-62
2021/09/10 01:59:43;;;;;;;;;;;;;;;17.81;86.44;100930.53;2090357;28;20428;-62
2021/09/10 02:00:43;;;;;;;;;;;;;;;17.80;86.16;100934.13;2090320;28;19908;-63
2021/09/10 02:01:44;;;;;;;;;;;;;;;17.78;85.02;100928.09;2090349;28;19909;-63
2021/09/10 02:02:44;;;;;;;;;;;;;;;17.80;84.79;100933.28;2090356;28;20277;-63
2021/09/10 02:03:44;;;;;;;;;;;;;;;17.79;85.05;100932.41;2090447;28;19913;-62
2021/09/10 02:04:44;;;;;;;;;;;;;;;17.79;84.73;100926.31;2090434;28;19921;-62
2021/09/10 02:05:45;;;;;;;;;;;;;;;17.79;85.25;100934.22;2090327;28;19934;-63
2021/09/10 02:06:45;;;;;;;;;;;;;;;17.80;84.88;100933.28;2090418;28;19958;-63
2021/09/10 02:07:45;;;;;;;;;;;;;;;17.81;84.50;100933.16;2081374;28;19927;-63
2021/09/10 02:08:46;;;;;;;;;;;;;;;17.83;85.53;100925.13;2081442;28;19909;-62
2021/09/10 02:09:46;;;;;;;;;;;;;;;17.81;85.25;100932.31;2089776;28;19908;-63
2021/09/10 02:10:46;;;;;;;;;;;;;;;17.79;84.72;100929.78;2090361;28;20003;-62
2021/09/10 02:11:46;;;;;;;;;;;;;;;17.79;84.73;100926.31;2081310;28;19913;-60
2021/09/10 02:12:46;;;;;;;;;;;;;;;17.79;85.84;100928.94;2081584;28;19909;-62
2021/09/10 02:13:47;;;;;;;;;;;;;;;17.78;86.35;100936.00;2090206;28;19916;-63
2021/09/10 02:14:47;;;;;;;;;;;;;;;17.76;87.35;100928.19;2090310;28;20338;-63
2021/09/10 02:15:47;;;;;;;;;;;;;;;17.74;87.60;100932.78;2090374;28;19908;-63
2021/09/10 02:16:47;;;;;;;;;;;;;;;17.71;86.72;100926.84;2091278;28;20365;-63
2021/09/10 02:17:47;;;;;;;;;;;;;;;17.71;85.93;100926.84;2091687;28;19917;-62
2021/09/10 02:18:48;;;;;;;;;;;;;;;17.71;85.43;100934.75;2091836;28;20427;-62
2021/09/10 02:19:48;;;;;;;;;;;;;;;17.73;85.12;100943.44;2091853;28;19975;-63
2021/09/10 02:20:48;;;;;;;;;;;;;;;17.72;85.25;100933.84;2082959;28;20003;-63
2021/09/10 02:21:48;;;;;;;;;;;;;;;17.73;85.14;100935.50;2083009;28;20008;-63
2021/09/10 02:22:48;;;;;;;;;;;;;;;17.71;84.84;100938.25;2091705;28;19916;-62
2021/09/10 02:23:48;;;;;;;;;;;;;;;17.70;85.80;100935.72;2091794;28;19913;-63
2021/09/10 02:24:49;;;;;;;;;;;;;;;17.69;85.56;100940.16;2091801;28;20285;-63
2021/09/10 02:25:49;;;;;;;;;;;;;;;17.68;85.19;100932.34;2091763;28;19909;-62
2021/09/10 02:26:49;;;;;;;;;;;;;;;17.70;85.27;100936.59;2091877;28;19913;-62
2021/09/10 02:27:49;;;;;;;;;;;;;;;17.71;85.61;100934.75;2091806;28;19916;-62
2021/09/10 02:28:49;;;;;;;;;;;;;;;17.69;85.21;100937.50;2091719;28;19954;-62
2021/09/10 02:29:49;;;;;;;;;;;;;;;17.70;85.08;100930.44;2091759;28;20258;-63
2021/09/10 02:30:50;;;;;;;;;;;;;;;17.70;85.24;100939.22;2091690;28;19909;-62
2021/09/10 02:31:50;;;;;;;;;;;;;;;17.69;85.05;100940.16;2091603;28;19941;-62
2021/09/10 02:32:50;;;;;;;;;;;;;;;17.71;85.46;100940.03;2091743;28;19913;-62
2021/09/10 02:33:51;;;;;;;;;;;;;;;17.71;85.49;100934.75;2082784;28;20409;-62
2021/09/10 02:34:51;;;;;;;;;;;;;;;17.69;85.20;100934.88;2082878;28;19982;-62
2021/09/10 02:35:51;;;;;;;;;;;;;;;17.69;85.27;100924.31;2091717;28;19909;-63
2021/09/10 02:36:51;;;;;;;;;;;;;;;17.67;85.70;100931.50;2091698;28;19909;-62
2021/09/10 02:37:52;;;;;;;;;;;;;;;17.66;85.54;100934.25;2091652;28;19963;-63
2021/09/10 02:38:52;;;;;;;;;;;;;;;17.69;85.95;100937.50;2091053;28;20387;-61
2021/09/10 02:39:53;;;;;;;;;;;;;;;17.70;86.06;100939.22;2091115;28;19909;-62
2021/09/10 02:40:53;;;;;;;;;;;;;;;17.70;86.12;100938.38;2091684;28;19958;-62
2021/09/10 02:41:53;;;;;;;;;;;;;;;17.68;86.08;100934.97;2091722;28;19923;-62
2021/09/10 02:42:53;;;;;;;;;;;;;;;17.66;85.96;100936.91;2091692;28;19979;-62
2021/09/10 02:43:53;;;;;;;;;;;;;;;17.63;85.92;100935.31;2090880;28;19909;-63
2021/09/10 02:44:53;;;;;;;;;;;;;;;17.63;85.85;100935.31;2091179;28;19910;-63
2021/09/10 02:45:54;;;;;;;;;;;;;;;17.62;87.22;100938.94;2082733;28;19909;-62
2021/09/10 02:46:54;;;;;;;;;;;;;;;17.59;86.93;100932.03;2082773;28;20352;-63
2021/09/10 02:47:54;;;;;;;;;;;;;;;17.57;87.53;100931.31;2091494;28;20152;-64
2021/09/10 02:48:54;;;;;;;;;;;;;;;17.54;87.23;100926.25;2091548;28;19912;-62
2021/09/10 02:49:54;;;;;;;;;;;;;;;17.55;86.56;100929.75;2091490;28;19924;-62
2021/09/10 02:50:55;;;;;;;;;;;;;;;17.56;86.58;100934.06;2091571;28;19913;-63
2021/09/10 02:51:55;;;;;;;;;;;;;;;17.56;86.45;100932.28;2091576;28;19952;-62
2021/09/10 02:52:55;;;;;;;;;;;;;;;17.56;86.52;100928.78;2091587;28;20484;-62
2021/09/10 02:53:55;;;;;;;;;;;;;;;17.55;87.04;100932.41;2091626;28;20381;-64
2021/09/10 02:54:56;;;;;;;;;;;;;;;17.55;86.73;100932.41;2091529;28;20285;-64
2021/09/10 02:55:56;;;;;;;;;;;;;;;17.52;86.35;100937.88;2091453;28;19913;-62
2021/09/10 02:56:56;;;;;;;;;;;;;;;17.52;86.10;100929.97;2091549;28;20425;-62
2021/09/10 02:57:57;;;;;;;;;;;;;;;17.53;86.11;100932.50;2091554;28;19909;-61
2021/09/10 02:58:57;;;;;;;;;;;;;;;17.53;86.31;100935.13;2091410;28;19909;-63
2021/09/10 02:59:57;;;;;;;;;;;;;;;17.51;86.60;100931.75;2091483;28;20382;-62
2021/09/10 03:00:59;;;;;;;;;;;;;;;17.50;86.92;100933.56;2091460;28;20377;-63
2021/09/10 03:01:59;;;;;;;;;;;;;;;17.49;87.35;100928.38;2091488;28;20289;-62
2021/09/10 03:03:00;;;;;;;;;;;;;;;17.48;87.81;100926.69;2091475;28;19909;-62
2021/09/10 03:04:00;;;;;;;;;;;;;;;17.47;86.96;100930.28;2091434;28;19940;-63
2021/09/10 03:05:00;;;;;;;;;;;;;;;17.47;86.98;100930.28;2082589;28;19921;-62
2021/09/10 03:06:00;;;;;;;;;;;;;;;17.49;86.37;100923.13;2082612;28;20386;-62
2021/09/10 03:07:01;;;;;;;;;;;;;;;17.48;86.12;100931.97;2091445;28;19995;-62
2021/09/10 03:08:01;;;;;;;;;;;;;;;17.46;86.40;100928.59;2091331;28;19958;-63
2021/09/10 03:09:02;;;;;;;;;;;;;;;17.42;86.03;100933.25;2082546;28;19909;-63
2021/09/10 03:10:03;;;;;;;;;;;;;;;17.45;85.95;100934.84;2082640;28;19909;-61
2021/09/10 03:11:03;;;;;;;;;;;;;;;17.47;86.15;100936.41;2091319;28;20435;-63
2021/09/10 03:12:03;;;;;;;;;;;;;;;17.50;86.32;100936.19;2090737;28;20361;-63
2021/09/10 03:13:03;;;;;;;;;;;;;;;17.50;86.05;100930.94;2090847;28;19909;-63
2021/09/10 03:14:04;;;;;;;;;;;;;;;17.54;86.72;100930.69;2082506;28;19913;-62
2021/09/10 03:15:05;;;;;;;;;;;;;;;17.55;86.75;100935.03;2082520;28;19916;-61
2021/09/10 03:16:05;;;;;;;;;;;;;;;17.57;86.76;100935.75;2091345;28;19913;-63
2021/09/10 03:17:05;;;;;;;;;;;;;;;17.56;86.83;100939.34;2091258;28;20329;-61
2021/09/10 03:18:05;;;;;;;;;;;;;;;17.52;86.87;100933.47;2091336;28;20423;-62
2021/09/10 03:19:06;;;;;;;;;;;;;;;17.50;86.68;100930.94;2091327;28;19908;-63
2021/09/10 03:20:06;;;;;;;;;;;;;;;17.53;87.12;100931.66;2091494;28;20006;-62
2021/09/10 03:21:07;;;;;;;;;;;;;;;17.52;86.92;100929.97;2091362;28;19912;-63
2021/09/10 03:22:07;;;;;;;;;;;;;;;17.50;86.87;100936.19;2090649;28;19909;-62
2021/09/10 03:23:07;;;;;;;;;;;;;;;17.49;86.97;100934.50;2090749;28;19916;-63
2021/09/10 03:24:07;;;;;;;;;;;;;;;17.49;87.11;100931.84;2091353;28;19912;-62
2021/09/10 03:25:08;;;;;;;;;;;;;;;17.50;86.93;100936.19;2091317;28;20348;-63
2021/09/10 03:26:08;;;;;;;;;;;;;;;17.50;87.15;100928.28;2091242;28;19908;-63
2021/09/10 03:27:08;;;;;;;;;;;;;;;17.49;86.91;100937.13;2091227;28;19909;-62
2021/09/10 03:28:08;;;;;;;;;;;;;;;17.47;86.91;100931.13;2091281;28;19992;-62
2021/09/10 03:29:09;;;;;;;;;;;;;;;17.47;87.11;100933.78;2082466;28;19908;-62
2021/09/10 03:30:10;;;;;;;;;;;;;;;17.44;87.02;100931.34;2082494;28;19909;-62
2021/09/10 03:31:10;;;;;;;;;;;;;;;17.43;86.70;100934.09;2091259;28;19909;-62
2021/09/10 03:32:10;;;;;;;;;;;;;;;17.42;86.75;100930.63;2091200;28;19908;-61
2021/09/10 03:33:10;;;;;;;;;;;;;;;17.41;87.21;100930.72;2090666;28;19908;-61
2021/09/10 03:34:11;;;;;;;;;;;;;;;17.38;87.20;100932.63;2090536;28;19909;-62
2021/09/10 03:35:11;;;;;;;;;;;;;;;17.40;86.99;100931.66;2082411;28;19909;-62
2021/09/10 03:36:11;;;;;;;;;;;;;;;17.42;86.80;100935.91;2082419;28;19913;-62
2021/09/10 03:37:13;;;;;;;;;;;;;;;17.40;86.87;100929.88;2091230;28;20305;-62
2021/09/10 03:38:13;;;;;;;;;;;;;;;17.40;86.98;100927.25;2091255;28;20379;-62
2021/09/10 03:39:14;;;;;;;;;;;;;;;17.40;87.87;100927.25;2091245;28;19908;-62
2021/09/10 03:40:14;;;;;;;;;;;;;;;17.38;88.25;100923.84;2091190;28;19908;-62
2021/09/10 03:41:14;;;;;;;;;;;;;;;17.36;88.49;100925.75;2090553;28;19987;-62
2021/09/10 03:42:15;;;;;;;;;;;;;;;17.35;88.47;100924.91;2082270;28;19920;-62
2021/09/10 03:43:15;;;;;;;;;;;;;;;17.35;87.73;100922.28;2082346;28;19913;-63
2021/09/10 03:44:15;;;;;;;;;;;;;;;17.34;87.59;100925.88;2091130;28;19960;-62
2021/09/10 03:45:15;;;;;;;;;;;;;;;17.32;87.35;100925.16;2091145;28;20405;-63
2021/09/10 03:46:15;;;;;;;;;;;;;;;17.31;87.66;100919.97;2091127;28;19954;-63
2021/09/10 03:47:16;;;;;;;;;;;;;;;17.31;87.32;100922.63;2091130;28;19915;-63
2021/09/10 03:48:16;;;;;;;;;;;;;;;17.30;87.34;100924.41;2091082;28;19915;-62
2021/09/10 03:49:16;;;;;;;;;;;;;;;17.28;87.27;100928.09;2091082;28;20392;-62
2021/09/10 03:50:16;;;;;;;;;;;;;;;17.25;87.03;100927.34;2090404;28;19916;-62
2021/09/10 03:51:17;;;;;;;;;;;;;;;17.27;87.05;100929.06;2090456;28;19919;-63
2021/09/10 03:52:17;;;;;;;;;;;;;;;17.24;87.14;100928.31;2091056;28;20325;-63
2021/09/10 03:53:17;;;;;;;;;;;;;;;17.25;86.97;100932.63;2091060;28;19909;-63
2021/09/10 03:54:18;;;;;;;;;;;;;;;17.25;87.08;100924.72;2091067;28;19963;-62
2021/09/10 03:55:19;;;;;;;;;;;;;;;17.25;87.15;100924.72;2091094;28;19959;-62
2021/09/10 03:56:19;;;;;;;;;;;;;;;17.23;87.03;100921.34;2091053;28;20416;-62
2021/09/10 03:57:19;;;;;;;;;;;;;;;17.22;87.26;100921.47;2082046;28;19913;-62
2021/09/10 03:58:19;;;;;;;;;;;;;;;17.20;86.99;100928.63;2082224;28;19909;-63
2021/09/10 03:59:20;;;;;;;;;;;;;;;17.20;86.75;100924.19;2090942;28;19908;-64
2021/09/10 04:00:20;;;;;;;;;;;;;;;17.19;86.86;100925.16;2091003;28;19955;-62
2021/09/10 04:01:20;;;;;;;;;;;;;;;17.18;86.71;100920.00;2091098;28;19948;-64
2021/09/10 04:02:20;;;;;;;;;;;;;;;17.18;87.06;100931.34;2093782;28;19934;-62
2021/09/10 04:03:20;;;;;;;;;;;;;;;17.18;87.70;100931.34;2091031;28;20309;-62
2021/09/10 04:04:21;;;;;;;;;;;;;;;17.17;87.39;100926.22;2090975;28;19916;-62
2021/09/10 04:05:21;;;;;;;;;;;;;;;17.19;87.09;100926.94;2090991;28;20361;-62
2021/09/10 04:06:21;;;;;;;;;;;;;;;17.20;87.46;100929.47;2091020;28;19909;-61
2021/09/10 04:07:21;;;;;;;;;;;;;;;17.19;87.24;100926.94;2091064;28;19909;-62
2021/09/10 04:08:21;;;;;;;;;;;;;;;17.19;87.51;100933.06;2091018;28;19909;-61
2021/09/10 04:09:21;;;;;;;;;;;;;;;17.18;87.11;100928.72;2090868;28;19909;-61
2021/09/10 04:10:22;;;;;;;;;;;;;;;17.20;87.08;100932.09;2090985;28;19909;-62
2021/09/10 04:11:22;;;;;;;;;;;;;;;17.21;86.65;100928.50;2090866;28;19913;-62
2021/09/10 04:12:22;;;;;;;;;;;;;;;17.21;87.13;100925.06;2090958;28;19912;-61
2021/09/10 04:13:22;;;;;;;;;;;;;;;17.21;87.11;100931.16;2090888;28;19908;-61
2021/09/10 04:14:22;;;;;;;;;;;;;;;17.19;87.25;100926.94;2090917;28;19909;-62
2021/09/10 04:15:23;;;;;;;;;;;;;;;17.18;87.37;100931.34;2090865;28;19908;-62
2021/09/10 04:16:23;;;;;;;;;;;;;;;17.17;87.10;100929.69;2090961;28;19909;-61
2021/09/10 04:17:23;;;;;;;;;;;;;;;17.17;87.18;100934.13;2090900;28;19939;-62
2021/09/10 04:18:23;;;;;;;;;;;;;;;17.15;87.00;100928.97;2090962;28;19908;-63
2021/09/10 04:19:23;;;;;;;;;;;;;;;17.13;87.32;100930.84;2090816;28;19909;-62
2021/09/10 04:20:23;;;;;;;;;;;;;;;17.11;87.30;100928.31;2090874;28;19932;-65
2021/09/10 04:21:24;;;;;;;;;;;;;;;17.08;87.16;100925.88;2090850;28;19916;-63
2021/09/10 04:22:24;;;;;;;;;;;;;;;17.08;87.43;100925.06;2090848;28;19908;-63
2021/09/10 04:23:24;;;;;;;;;;;;;;;17.06;87.38;100921.66;2090812;28;19973;-62
2021/09/10 04:24:24;;;;;;;;;;;;;;;17.05;87.52;100925.22;2090896;28;19915;-62
2021/09/10 04:25:25;;;;;;;;;;;;;;;17.04;87.96;100924.38;2082066;28;20491;-62
2021/09/10 04:26:25;;;;;;;;;;;;;;;17.02;88.13;100925.44;2082119;28;19913;-63
2021/09/10 04:27:25;;;;;;;;;;;;;;;17.02;88.25;100925.44;2090912;28;19994;-62
2021/09/10 04:28:25;;;;;;;;;;;;;;;17.02;87.97;100920.16;2082017;28;19959;-62
2021/09/10 04:29:26;;;;;;;;;;;;;;;17.01;87.68;100931.66;2082208;28;20394;-62
2021/09/10 04:30:26;;;;;;;;;;;;;;;17.03;87.73;100927.09;2090864;28;20388;-63
2021/09/10 04:31:26;;;;;;;;;;;;;;;17.03;88.20;100929.75;2090899;28;19913;-63
2021/09/10 04:32:26;;;;;;;;;;;;;;;17.02;87.95;100930.69;2090912;28;20401;-61
2021/09/10 04:33:26;;;;;;;;;;;;;;;17.01;88.34;100929.03;2090715;28;19940;-63
2021/09/10 04:34:27;;;;;;;;;;;;;;;17.01;88.76;100929.03;2090806;28;19952;-62
2021/09/10 04:35:27;;;;;;;;;;;;;;;17.01;88.94;100923.75;2090882;28;19913;-62
2021/09/10 04:36:27;;;;;;;;;;;;;;;17.01;88.68;100934.28;2090788;28;19913;-62
2021/09/10 04:37:27;;;;;;;;;;;;;;;17.01;88.63;100929.03;2081841;28;19909;-62
2021/09/10 04:38:27;;;;;;;;;;;;;;;17.01;89.00;100931.66;2082007;28;19915;-62
2021/09/10 04:39:27;;;;;;;;;;;;;;;17.02;89.52;100930.69;2090145;28;19909;-63
2021/09/10 04:40:28;;;;;;;;;;;;;;;17.02;89.75;100936.84;2090779;28;20332;-62
2021/09/10 04:41:28;;;;;;;;;;;;;;;17.02;89.90;100930.69;2090781;28;19940;-62
2021/09/10 04:42:28;;;;;;;;;;;;;;;17.02;89.96;100928.06;2090803;28;19944;-62
2021/09/10 04:43:28;;;;;;;;;;;;;;;17.01;89.86;100929.88;2081850;28;20271;-61
2021/09/10 04:44:28;;;;;;;;;;;;;;;17.01;89.44;100929.03;2081953;28;19991;-62
2021/09/10 04:45:29;;;;;;;;;;;;;;;17.00;89.84;100933.44;2090494;28;19908;-62
2021/09/10 04:46:29;;;;;;;;;;;;;;;17.01;89.34;100923.75;2090690;28;19913;-63
2021/09/10 04:47:29;;;;;;;;;;;;;;;17.02;89.64;100930.69;2090807;28;19920;-62
2021/09/10 04:48:29;;;;;;;;;;;;;;;17.02;89.46;100930.69;2090649;28;20470;-62
2021/09/10 04:49:29;;;;;;;;;;;;;;;17.02;88.67;100922.78;2090741;28;19921;-62
2021/09/10 04:50:30;;;;;;;;;;;;;;;17.04;88.34;100924.38;2081780;28;19973;-62
2021/09/10 04:51:30;;;;;;;;;;;;;;;17.07;89.26;100923.38;2081846;28;20078;-62
2021/09/10 04:52:30;;;;;;;;;;;;;;;17.07;89.50;100928.66;2089955;28;19917;-61
2021/09/10 04:53:30;;;;;;;;;;;;;;;17.09;89.40;100935.50;2090165;28;19920;-61
2021/09/10 04:54:31;;;;;;;;;;;;;;;17.07;89.94;100928.66;2081848;28;19909;-62
2021/09/10 04:55:31;;;;;;;;;;;;;;;17.09;89.37;100935.50;2081901;28;19912;-62
2021/09/10 04:56:31;;;;;;;;;;;;;;;17.10;88.96;100931.91;2090770;28;19916;-62
2021/09/10 04:57:31;;;;;;;;;;;;;;;17.10;89.23;100929.25;2090583;28;19980;-61
2021/09/10 04:58:32;;;;;;;;;;;;;;;17.12;89.46;100934.44;2090620;28;19915;-61
2021/09/10 04:59:32;;;;;;;;;;;;;;;17.13;89.67;100941.38;2081816;28;19987;-62
2021/09/10 05:00:32;;;;;;;;;;;;;;;17.14;89.94;100935.16;2081799;28;19909;-61
2021/09/10 05:01:33;;;;;;;;;;;;;;;17.14;89.17;100935.16;2090575;28;19958;-62
2021/09/10 05:02:33;;;;;;;;;;;;;;;17.15;89.32;100931.59;2090621;28;19909;-61
2021/09/10 05:03:33;;;;;;;;;;;;;;;17.18;89.33;100936.63;2090675;28;19909;-63
2021/09/10 05:04:33;;;;;;;;;;;;;;;17.19;88.98;100933.06;2081633;28;20011;-62
2021/09/10 05:05:33;;;;;;;;;;;;;;;17.21;88.85;100935.59;2081805;28;19916;-62
2021/09/10 05:06:33;;;;;;;;;;;;;;;17.21;87.92;100931.16;2090492;28;19916;-62
2021/09/10 05:07:34;;;;;;;;;;;;;;;17.25;87.92;100937.91;2090613;28;20365;-62
2021/09/10 05:08:34;;;;;;;;;;;;;;;17.29;88.44;100940.31;2090558;28;19954;-61
2021/09/10 05:09:34;;;;;;;;;;;;;;;17.30;88.88;100932.31;2081640;28;19939;-62